Terminal Aerodrome Forecast
Issued by NWS

Home | Current Version | Previous Version | Text Only | Print | Product List | Glossary On
Versions: 1 2 3 4 5 6 7 8 9 10 11 12 13 14 15 16 17 18 19 20 21 22 23 24 25 26 27 28 29 30 31 32 33 34 35 36 37 38 39 40 41 42 43 44 45 46 47 48 49 50
592
FTUS46 KEKA 250542
TAFACV
TAF
KACV 250542Z 2506/2606 08004KT P6SM SCT050 BKN250
     FM251500 15005KT P6SM SCT025 BKN050 OVC100
     FM252200 20009KT 6SM -RA BKN025 OVC050
     FM260000 21009KT 4SM RA BKN015 OVC025
     FM260300 30010G17KT 5SM -RA BKN015 OVC020=

USA.gov is the U.S. government's official web portal to all federal, state and local government web resources and services.